Time,TemperatureF,DewpointF,PressureIn,WindDirection,WindDirectionDegrees,WindSpeedMPH,WindSpeedGustMPH,Humidity,HourlyPrecipIn,Conditions,Clouds,dailyrainin,SoftwareType,DateUTC
2013-11-30 00:01:00,8.0,6.0,30.79,NE,48,0.0,0.0,91,0.00,,,0.00,weatherlink.com 1.10,2013-11-30 05:01:00,
2013-11-30 00:16:00,7.7,5.0,30.79,NE,48,0.0,0.0,89,0.00,,,0.00,weatherlink.com 1.10,2013-11-30 05:16:00,
2013-11-30 00:31:00,7.6,5.0,30.79,NE,48,0.0,0.0,90,0.00,,,0.00,weatherlink.com 1.10,2013-11-30 05:31:00,
2013-11-30 00:46:00,7.5,5.0,30.79,NE,49,0.0,0.0,90,0.00,,,0.00,weatherlink.com 1.10,2013-11-30 05:46:00,
2013-11-30 01:01:00,8.0,6.0,30.79,NE,49,0.0,0.0,89,0.00,,,0.00,weatherlink.com 1.10,2013-11-30 06:01:00,
2013-11-30 01:16:00,8.0,6.0,30.79,North,-999,-999.0,-999.0,89,0.00,,,0.00,weatherlink.com 1.10,2013-11-30 06:16:00,
2013-11-30 01:31:00,8.0,6.0,30.80,North,-999,-999.0,-999.0,89,0.00,,,0.00,weatherlink.com 1.10,2013-11-30 06:31:00,
2013-11-30 01:46:00,8.0,6.0,30.80,North,-999,-999.0,-999.0,89,0.00,,,0.00,weatherlink.com 1.10,2013-11-30 06:46:00,
2013-11-30 02:01:00,8.0,6.0,30.80,North,-999,-999.0,-999.0,89,0.00,,,0.00,weatherlink.com 1.10,2013-11-30 07:01:00,
2013-11-30 02:16:00,8.0,6.0,30.80,North,-999,-999.0,-999.0,89,0.00,,,0.00,weatherlink.com 1.10,2013-11-30 07:16:00,
2013-11-30 02:32:00,8.0,6.0,30.80,North,-999,-999.0,-999.0,89,0.00,,,0.00,weatherlink.com 1.10,2013-11-30 07:32:00,
2013-11-30 02:47:00,8.0,6.0,30.81,North,-999,-999.0,-999.0,89,0.00,,,0.00,weatherlink.com 1.10,2013-11-30 07:47:00,
2013-11-30 03:02:00,8.0,6.0,30.80,North,-999,-999.0,-999.0,89,0.00,,,0.00,weatherlink.com 1.10,2013-11-30 08:02:00,
2013-11-30 03:17:00,8.0,6.0,30.81,North,-999,-999.0,-999.0,89,0.00,,,0.00,weatherlink.com 1.10,2013-11-30 08:17:00,
2013-11-30 03:32:00,8.0,6.0,30.81,North,-999,-999.0,-999.0,89,0.00,,,0.00,weatherlink.com 1.10,2013-11-30 08:32:00,
2013-11-30 03:47:00,8.0,6.0,30.82,North,-999,-999.0,-999.0,89,0.00,,,0.00,weatherlink.com 1.10,2013-11-30 08:47:00,
2013-11-30 04:02:00,8.0,6.0,30.81,North,-999,-999.0,-999.0,89,0.00,,,0.00,weatherlink.com 1.10,2013-11-30 09:02:00,
2013-11-30 04:17:00,8.0,6.0,30.81,North,-999,-999.0,-999.0,89,0.00,,,0.00,weatherlink.com 1.10,2013-11-30 09:17:00,
2013-11-30 04:32:00,8.0,6.0,30.82,North,-999,-999.0,-999.0,89,0.00,,,0.00,weatherlink.com 1.10,2013-11-30 09:32:00,
2013-11-30 04:47:00,8.0,6.0,30.81,North,-999,-999.0,-999.0,89,0.00,,,0.00,weatherlink.com 1.10,2013-11-30 09:47:00,
2013-11-30 05:02:00,8.0,6.0,30.81,North,-999,-999.0,-999.0,89,0.00,,,0.00,weatherlink.com 1.10,2013-11-30 10:02:00,
2013-11-30 05:17:00,8.0,6.0,30.81,North,-999,-999.0,-999.0,89,0.00,,,0.00,weatherlink.com 1.10,2013-11-30 10:17:00,
2013-11-30 05:32:00,8.0,6.0,30.81,North,-999,-999.0,-999.0,89,0.00,,,0.00,weatherlink.com 1.10,2013-11-30 10:32:00,
2013-11-30 05:47:00,8.0,6.0,30.81,North,-999,-999.0,-999.0,89,0.00,,,0.00,weatherlink.com 1.10,2013-11-30 10:47:00,
2013-11-30 06:03:00,8.0,6.0,30.81,North,-999,-999.0,-999.0,89,0.00,,,0.00,weatherlink.com 1.10,2013-11-30 11:03:00,
2013-11-30 06:18:00,8.0,6.0,30.81,North,-999,-999.0,-999.0,89,0.00,,,0.00,weatherlink.com 1.10,2013-11-30 11:18:00,
2013-11-30 06:33:00,8.0,6.0,30.81,North,-999,-999.0,-999.0,89,0.00,,,0.00,weatherlink.com 1.10,2013-11-30 11:33:00,
2013-11-30 06:48:00,8.0,6.0,30.81,North,-999,-999.0,-999.0,89,0.00,,,0.00,weatherlink.com 1.10,2013-11-30 11:48:00,
2013-11-30 07:03:00,8.0,6.0,30.81,North,-999,-999.0,-999.0,89,0.00,,,0.00,weatherlink.com 1.10,2013-11-30 12:03:00,
2013-11-30 07:18:00,8.0,6.0,30.81,North,-999,-999.0,-999.0,89,0.00,,,0.00,weatherlink.com 1.10,2013-11-30 12:18:00,
2013-11-30 07:33:00,8.0,6.0,30.82,North,-999,-999.0,-999.0,89,0.00,,,0.00,weatherlink.com 1.10,2013-11-30 12:33:00,
2013-11-30 07:48:00,9.7,7.0,30.82,NE,50,0.0,0.0,90,0.00,,,0.00,weatherlink.com 1.10,2013-11-30 12:48:00,
2013-11-30 08:03:00,11.0,7.0,30.83,NE,49,0.0,0.0,83,0.00,,,0.00,weatherlink.com 1.10,2013-11-30 13:03:00,
2013-11-30 08:18:00,14.9,9.0,30.83,SSW,199,0.0,0.0,77,0.00,,,0.00,weatherlink.com 1.10,2013-11-30 13:18:00,
2013-11-30 08:33:00,14.9,8.0,30.83,SSW,213,0.0,0.0,75,0.00,,,0.00,weatherlink.com 1.10,2013-11-30 13:33:00,
2013-11-30 08:48:00,15.8,9.0,30.82,SW,218,1.0,1.0,74,0.00,,,0.00,weatherlink.com 1.10,2013-11-30 13:48:00,
2013-11-30 09:03:00,16.4,9.0,30.81,SSE,162,0.0,1.0,73,0.00,,,0.00,weatherlink.com 1.10,2013-11-30 14:03:00,
2013-11-30 09:18:00,18.3,10.0,30.80,WSW,239,1.0,2.0,69,0.00,,,0.00,weatherlink.com 1.10,2013-11-30 14:18:00,
2013-11-30 09:33:00,19.5,11.0,30.80,SW,231,0.0,1.0,68,0.00,,,0.00,weatherlink.com 1.10,2013-11-30 14:33:00,
2013-11-30 09:48:00,20.1,10.0,30.79,ESE,120,0.0,2.0,66,0.00,,,0.00,weatherlink.com 1.10,2013-11-30 14:48:00,
2013-11-30 10:03:00,20.1,11.0,30.79,SW,223,0.0,2.0,69,0.00,,,0.00,weatherlink.com 1.10,2013-11-30 15:03:00,
2013-11-30 10:18:00,19.7,12.0,30.79,WSW,257,0.0,4.0,71,0.00,,,0.00,weatherlink.com 1.10,2013-11-30 15:18:00,
2013-11-30 10:34:00,19.7,12.0,30.78,SSE,164,0.0,2.0,73,0.00,,,0.00,weatherlink.com 1.10,2013-11-30 15:34:00,
2013-11-30 10:49:00,21.2,14.0,30.77,WSW,241,0.0,0.0,74,0.00,,,0.00,weatherlink.com 1.10,2013-11-30 15:49:00,
2013-11-30 11:04:00,20.9,11.0,30.77,WSW,255,1.0,6.0,66,0.00,,,0.00,weatherlink.com 1.10,2013-11-30 16:04:00,
2013-11-30 11:19:00,20.0,11.0,30.76,SW,235,0.0,4.0,69,0.00,,,0.00,weatherlink.com 1.10,2013-11-30 16:19:00,
2013-11-30 11:34:00,19.8,12.0,30.75,SW,229,0.0,6.0,70,0.00,,,0.00,weatherlink.com 1.10,2013-11-30 16:34:00,
2013-11-30 11:49:00,19.8,11.0,30.74,SE,146,0.0,2.0,68,0.00,,,0.00,weatherlink.com 1.10,2013-11-30 16:49:00,
2013-11-30 12:04:00,19.7,10.0,30.72,NE,36,0.0,8.0,67,0.00,,,0.00,weatherlink.com 1.10,2013-11-30 17:04:00,
2013-11-30 12:19:00,20.0,12.0,30.71,SW,224,2.0,6.0,70,0.00,,,0.00,weatherlink.com 1.10,2013-11-30 17:19:00,
2013-11-30 12:34:00,20.3,12.0,30.70,SW,225,1.0,6.0,69,0.00,,,0.00,weatherlink.com 1.10,2013-11-30 17:34:00,
2013-11-30 12:49:00,20.4,11.0,30.69,East,80,2.0,7.0,66,0.00,,,0.00,weatherlink.com 1.10,2013-11-30 17:49:00,
2013-11-30 13:04:00,20.5,10.0,30.69,SW,222,0.0,9.0,63,0.00,,,0.00,weatherlink.com 1.10,2013-11-30 18:04:00,
2013-11-30 13:19:00,20.7,11.0,30.68,SSE,147,4.0,8.0,65,0.00,,,0.00,weatherlink.com 1.10,2013-11-30 18:19:00,
2013-11-30 13:34:00,20.5,10.0,30.67,WSW,256,1.0,6.0,63,0.00,,,0.00,weatherlink.com 1.10,2013-11-30 18:34:00,
2013-11-30 13:49:00,20.3,11.0,30.66,WSW,240,1.0,6.0,66,0.00,,,0.00,weatherlink.com 1.10,2013-11-30 18:49:00,
2013-11-30 14:04:00,20.4,11.0,30.65,SW,232,1.0,9.0,66,0.00,,,0.00,weatherlink.com 1.10,2013-11-30 19:04:00,
2013-11-30 14:19:00,20.5,11.0,30.65,SSE,149,3.0,5.0,68,0.00,,,0.00,weatherlink.com 1.10,2013-11-30 19:19:00,
2013-11-30 14:34:00,20.5,12.0,30.65,WSW,252,1.0,5.0,71,0.00,,,0.00,weatherlink.com 1.10,2013-11-30 19:34:00,
2013-11-30 14:49:00,20.2,13.0,30.64,SW,236,1.0,3.0,73,0.00,,,0.00,weatherlink.com 1.10,2013-11-30 19:49:00,
2013-11-30 15:04:00,20.0,13.0,30.63,SW,222,0.0,3.0,75,0.00,,,0.00,weatherlink.com 1.10,2013-11-30 20:04:00,
2013-11-30 15:19:00,20.2,13.0,30.63,SW,227,4.0,5.0,73,0.00,,,0.00,weatherlink.com 1.10,2013-11-30 20:19:00,
2013-11-30 15:34:00,20.1,12.0,30.62,WNW,284,1.0,7.0,71,0.00,,,0.00,weatherlink.com 1.10,2013-11-30 20:34:00,
2013-11-30 15:49:00,19.8,13.0,30.62,SSE,160,0.0,1.0,76,0.00,,,0.00,weatherlink.com 1.10,2013-11-30 20:49:00,
2013-11-30 16:04:00,19.6,14.0,30.60,WSW,254,0.0,0.0,80,0.00,,,0.00,weatherlink.com 1.10,2013-11-30 21:04:00,
2013-11-30 16:19:00,19.1,13.0,30.61,SSW,196,0.0,2.0,78,0.00,,,0.00,weatherlink.com 1.10,2013-11-30 21:19:00,
2013-11-30 16:34:00,18.6,13.0,30.60,WSW,252,2.0,3.0,80,0.00,,,0.00,weatherlink.com 1.10,2013-11-30 21:34:00,
2013-11-30 16:49:00,18.6,14.0,30.59,SW,226,1.0,4.0,82,0.00,,,0.00,weatherlink.com 1.10,2013-11-30 21:49:00,
2013-11-30 17:04:00,18.8,14.0,30.60,SW,223,0.0,1.0,80,0.00,,,0.00,weatherlink.com 1.10,2013-11-30 22:04:00,
2013-11-30 17:19:00,18.9,15.0,30.59,WSW,256,0.0,1.0,84,0.00,,,0.00,weatherlink.com 1.10,2013-11-30 22:19:00,
2013-11-30 17:34:00,18.7,14.0,30.58,WSW,241,0.0,4.0,82,0.00,,,0.00,weatherlink.com 1.10,2013-11-30 22:34:00,
2013-11-30 17:49:00,18.5,15.0,30.58,WSW,240,0.0,4.0,84,0.00,,,0.00,weatherlink.com 1.10,2013-11-30 22:49:00,
2013-11-30 18:04:00,17.9,14.0,30.57,WSW,249,0.0,1.0,84,0.00,,,0.00,weatherlink.com 1.10,2013-11-30 23:04:00,
2013-11-30 18:19:00,17.6,14.0,30.57,West,272,0.0,1.0,85,0.00,,,0.00,weatherlink.com 1.10,2013-11-30 23:19:00,
2013-11-30 18:34:00,18.1,14.0,30.57,ENE,65,0.0,2.0,84,0.00,,,0.00,weatherlink.com 1.10,2013-11-30 23:34:00,
2013-11-30 18:50:00,18.5,15.0,30.57,ESE,103,0.0,0.0,84,0.00,,,0.00,weatherlink.com 1.10,2013-11-30 23:50:00,
2013-11-30 19:05:00,18.7,15.0,30.57,SE,142,0.0,1.0,86,0.00,,,0.00,weatherlink.com 1.10,2013-12-01 00:05:00,
2013-11-30 19:20:00,19.1,15.0,30.55,SW,232,0.0,1.0,85,0.00,,,0.00,weatherlink.com 1.10,2013-12-01 00:20:00,
2013-11-30 19:35:00,19.7,16.0,30.54,SW,233,0.0,2.0,85,0.00,,,0.00,weatherlink.com 1.10,2013-12-01 00:35:00,
2013-11-30 19:50:00,20.1,16.0,30.53,WSW,245,0.0,2.0,85,0.00,,,0.00,weatherlink.com 1.10,2013-12-01 00:50:00,
2013-11-30 20:05:00,20.9,16.0,30.51,SW,221,1.0,5.0,82,0.00,,,0.00,weatherlink.com 1.10,2013-12-01 01:05:00,
2013-11-30 20:20:00,21.1,16.0,30.50,SW,229,0.0,3.0,82,0.00,,,0.00,weatherlink.com 1.10,2013-12-01 01:20:00,
2013-11-30 20:35:00,21.3,17.0,30.48,West,269,0.0,4.0,82,0.00,,,0.00,weatherlink.com 1.10,2013-12-01 01:35:00,
2013-11-30 20:50:00,21.5,18.0,30.46,WSW,248,0.0,5.0,85,0.00,,,0.00,weatherlink.com 1.10,2013-12-01 01:50:00,
2013-11-30 21:05:00,21.5,18.0,30.45,SW,230,4.0,11.0,87,0.00,,,0.00,weatherlink.com 1.10,2013-12-01 02:05:00,
2013-11-30 21:20:00,21.6,19.0,30.44,WNW,294,2.0,7.0,88,0.00,,,0.00,weatherlink.com 1.10,2013-12-01 02:20:00,
2013-11-30 21:35:00,22.1,18.0,30.43,SW,224,6.0,11.0,84,0.00,,,0.00,weatherlink.com 1.10,2013-12-01 02:35:00,
2013-11-30 21:50:00,22.4,18.0,30.42,South,187,5.0,8.0,83,0.00,,,0.00,weatherlink.com 1.10,2013-12-01 02:50:00,
2013-11-30 22:05:00,22.4,18.0,30.43,West,259,0.0,4.0,84,0.00,,,0.00,weatherlink.com 1.10,2013-12-01 03:05:00,
2013-11-30 22:20:00,22.5,18.0,30.44,ESE,107,0.0,3.0,82,0.00,,,0.00,weatherlink.com 1.10,2013-12-01 03:20:00,
2013-11-30 22:35:00,22.3,18.0,30.45,WSW,248,0.0,0.0,84,0.00,,,0.00,weatherlink.com 1.10,2013-12-01 03:35:00,
2013-11-30 22:50:00,22.4,17.0,30.43,SSW,211,3.0,8.0,79,0.00,,,0.00,weatherlink.com 1.10,2013-12-01 03:50:00,
2013-11-30 23:05:00,22.4,17.0,30.43,WSW,252,3.0,9.0,78,0.00,,,0.00,weatherlink.com 1.10,2013-12-01 04:05:00,
2013-11-30 23:20:00,22.4,17.0,30.42,SSW,205,2.0,7.0,79,0.00,,,0.00,weatherlink.com 1.10,2013-12-01 04:20:00,
2013-11-30 23:35:00,22.3,17.0,30.42,SSW,211,0.0,9.0,80,0.00,,,0.00,weatherlink.com 1.10,2013-12-01 04:35:00,
2013-11-30 23:50:00,22.4,17.0,30.40,WSW,238,0.0,9.0,80,0.00,,,0.00,weatherlink.com 1.10,2013-12-01 04:50:00,